Time;durP1;ratioP1;P1;durP2;ratioP2;P2;SDS_P1;SDS_P2;PMS_P1;PMS_P2;Temp;Humidity;BMP_temperature;BMP_pressure;BME280_temperature;BME280_humidity;BME280_pressure;Samples;Min_cycle;Max_cycle;Signal;HPM_P1;HPM_P2
2023/10/16 00:00:29;;;;;;;58.13;9.82;;;;;;;4.65;100.00;102423.44;5244262;28;20028;-68
2023/10/16 00:02:56;;;;;;;29.98;8.77;;;;;;;4.61;100.00;102428.06;5240841;28;20047;-68
2023/10/16 00:05:31;;;;;;;14.98;8.40;;;;;;;4.57;100.00;102428.38;5244838;28;20362;-68
2023/10/16 00:08:06;;;;;;;26.40;10.27;;;;;;;4.54;100.00;102432.03;5248885;28;20028;-68
2023/10/16 00:10:37;;;;;;;19.17;10.13;;;;;;;4.55;100.00;102427.56;5248731;28;20036;-69
2023/10/16 00:13:11;;;;;;;17.25;9.70;;;;;;;4.58;100.00;102427.41;5244307;28;20040;-69
2023/10/16 00:15:49;;;;;;;19.63;9.70;;;;;;;4.59;100.00;102432.63;5244220;28;20481;-69
2023/10/16 00:18:23;;;;;;;23.77;9.85;;;;;;;4.60;100.00;102422.84;5247278;28;20052;-69
2023/10/16 00:20:59;;;;;;;17.40;9.20;;;;;;;4.59;100.00;102424.66;5243648;28;20074;-69
2023/10/16 00:23:30;;;;;;;13.80;8.35;;;;;;;4.60;100.00;102429.00;5245980;28;20024;-69
2023/10/16 00:26:01;;;;;;;22.98;8.70;;;;;;;4.57;100.00;102429.22;5244914;28;20091;-69
2023/10/16 00:28:32;;;;;;;16.05;7.68;;;;;;;4.55;100.00;102432.88;5243893;28;20032;-69
2023/10/16 00:31:03;;;;;;;12.57;7.65;;;;;;;4.54;100.00;102428.53;5243808;28;20035;-69
2023/10/16 00:33:33;;;;;;;32.80;10.93;;;;;;;4.51;100.00;102423.38;5247335;28;20492;-69
2023/10/16 00:36:05;;;;;;;18.65;8.55;;;;;;;4.54;100.00;102423.22;5244040;28;20028;-68
2023/10/16 00:38:37;;;;;;;25.90;11.10;;;;;;;4.50;100.00;102421.66;5244410;28;20474;-68
2023/10/16 00:43:45;;;;;;;33.28;11.02;;;;;;;4.44;100.00;102422.03;5244628;28;20154;-69
2023/10/16 00:46:30;;;;;;;48.58;11.43;;;;;;;4.43;100.00;102421.19;5247422;28;20490;-69
2023/10/16 00:49:00;;;;;;;16.10;8.13;;;;;;;4.39;100.00;102423.13;5242387;28;20028;-68
2023/10/16 00:51:38;;;;;;;17.42;9.00;;;;;;;4.34;100.00;102419.88;5244175;28;20439;-69
2023/10/16 00:54:19;;;;;;;18.67;9.43;;;;;;;4.32;100.00;102418.28;5252190;28;20067;-69
2023/10/16 00:56:50;;;;;;;18.02;9.77;;;;;;;4.31;100.00;102413.88;5247498;28;20024;-69
2023/10/16 00:59:23;;;;;;;18.27;10.00;;;;;;;4.32;100.00;102415.63;5249059;28;20024;-68
2023/10/16 01:02:14;;;;;;;17.90;9.85;;;;;;;4.33;100.00;102418.19;5253417;28;20385;-69
2023/10/16 01:04:47;;;;;;;21.95;10.35;;;;;;;4.35;100.00;102405.66;5248980;28;20040;-68
2023/10/16 01:07:23;;;;;;;20.75;10.02;;;;;;;4.36;100.00;102414.47;5251832;28;20558;-68
2023/10/16 01:09:54;;;;;;;18.77;9.23;;;;;;;4.35;100.00;102405.66;5251345;28;20024;-68
2023/10/16 01:12:37;;;;;;;16.63;9.60;;;;;;;4.36;100.00;102412.69;5251017;28;20090;-68
2023/10/16 01:15:08;;;;;;;18.50;9.07;;;;;;;4.32;100.00;102405.00;5253914;28;20692;-69
2023/10/16 01:17:39;;;;;;;26.58;9.90;;;;;;;4.31;100.00;102403.25;5252585;28;20059;-68
2023/10/16 01:20:10;;;;;;;25.60;10.15;;;;;;;4.31;100.00;102400.59;5249377;28;20028;-68
2023/10/16 01:22:43;;;;;;;19.67;8.65;;;;;;;4.29;100.00;102395.38;5248203;28;20477;-69
2023/10/16 01:25:15;;;;;;;47.10;11.23;;;;;;;4.29;100.00;102384.75;5251257;28;20024;-68
2023/10/16 01:27:45;;;;;;;43.63;12.13;;;;;;;4.26;100.00;102387.56;5254083;28;20056;-68
2023/10/16 01:30:17;;;;;;;24.05;10.93;;;;;;;4.24;100.00;102392.13;5248707;28;20146;-68
2023/10/16 01:32:47;;;;;;;28.65;11.52;;;;;;;4.21;100.00;102394.94;5253265;28;20028;-68
2023/10/16 01:35:18;;;;;;;35.72;11.52;;;;;;;4.19;100.00;102391.53;5253203;28;20575;-69
2023/10/16 01:37:52;;;;;;;34.53;12.40;;;;;;;4.20;100.00;102390.59;5251810;28;20047;-68
2023/10/16 01:40:25;;;;;;;28.20;12.00;;;;;;;4.21;100.00;102392.28;5250808;28;20032;-69
2023/10/16 01:42:56;;;;;;;30.75;12.45;;;;;;;4.17;100.00;102385.47;5252204;28;20020;-68
2023/10/16 01:45:30;;;;;;;23.20;11.43;;;;;;;4.15;100.00;102387.34;5252829;28;20016;-68
2023/10/16 01:48:04;;;;;;;34.60;13.52;;;;;;;4.13;100.00;102391.91;5252169;28;20407;-68
2023/10/16 01:50:38;;;;;;;28.63;10.98;;;;;;;4.12;100.00;102387.53;5251222;28;20307;-68
2023/10/16 01:53:14;;;;;;;23.55;10.30;;;;;;;4.13;100.00;102387.44;5257354;28;20089;-68
2023/10/16 01:55:51;;;;;;;19.02;9.98;;;;;;;4.07;100.00;102382.47;5254012;28;20019;-69
2023/10/16 01:58:23;;;;;;;30.30;10.10;;;;;;;3.99;100.00;102378.53;5250759;28;20020;-68
2023/10/16 02:00:54;;;;;;;19.88;10.32;;;;;;;3.96;100.00;102382.19;5251222;28;20023;-68
2023/10/16 02:03:26;;;;;;;22.23;10.70;;;;;;;3.92;100.00;102385.16;5253528;28;20024;-69
2023/10/16 02:05:56;;;;;;;19.40;10.55;;;;;;;3.90;100.00;102378.09;5251277;28;20131;-69
2023/10/16 02:08:28;;;;;;;16.85;9.98;;;;;;;3.93;100.00;102376.22;5248665;28;20024;-68
2023/10/16 02:10:59;;;;;;;21.73;9.85;;;;;;;3.94;100.00;102372.63;5249275;28;20468;-68
2023/10/16 02:13:31;;;;;;;20.10;9.07;;;;;;;3.92;100.00;102378.03;5246422;28;20028;-68
2023/10/16 02:16:02;;;;;;;18.15;9.55;;;;;;;3.90;100.00;102382.56;5250005;28;20024;-69
2023/10/16 02:18:37;;;;;;;14.40;9.20;;;;;;;3.88;100.00;102382.66;5250652;28;20025;-68
2023/10/16 02:21:11;;;;;;;21.35;8.73;;;;;;;3.97;100.00;102383.94;5251439;28;20040;-68
2023/10/16 02:23:43;;;;;;;12.77;7.40;;;;;;;3.95;100.00;102379.66;5247695;28;20158;-69
2023/10/16 02:26:18;;;;;;;15.88;8.02;;;;;;;3.95;100.00;102377.84;5254102;28;20481;-69
2023/10/16 02:28:54;;;;;;;17.73;8.40;;;;;;;4.00;100.00;102381.09;5244960;28;20053;-68
2023/10/16 02:31:24;;;;;;;13.50;7.93;;;;;;;3.92;100.00;102371.88;5243650;28;20024;-68
2023/10/16 02:33:56;;;;;;;15.75;8.38;;;;;;;3.85;100.00;102374.00;5248947;28;20024;-68
2023/10/16 02:36:26;;;;;;;15.32;9.00;;;;;;;3.77;100.00;102377.09;5247413;28;20067;-69
2023/10/16 02:38:57;;;;;;;17.02;8.88;;;;;;;3.70;100.00;102369.53;5253649;28;20063;-69
2023/10/16 02:41:28;;;;;;;18.25;10.00;;;;;;;3.64;100.00;102371.59;5247502;28;20024;-68
2023/10/16 02:43:59;;;;;;;19.00;8.93;;;;;;;3.63;100.00;102374.34;5250327;28;20040;-68
2023/10/16 02:46:30;;;;;;;20.13;9.18;;;;;;;3.62;100.00;102372.63;5249665;28;20035;-69
2023/10/16 02:49:01;;;;;;;17.45;9.60;;;;;;;3.64;100.00;102371.59;5250233;28;20069;-69
2023/10/16 02:51:31;;;;;;;19.27;8.93;;;;;;;3.69;100.00;102374.00;5247953;28;20017;-69
2023/10/16 02:54:03;;;;;;;16.55;9.00;;;;;;;3.71;100.00;102372.09;5247179;28;20096;-69
2023/10/16 02:56:37;;;;;;;27.08;10.30;;;;;;;3.69;100.00;102374.00;5247915;28;20032;-69
2023/10/16 02:59:08;;;;;;;74.65;11.70;;;;;;;3.64;100.00;102362.78;5247740;28;20904;-68
2023/10/16 03:01:40;;;;;;;174.13;16.27;;;;;;;3.61;100.00;102368.22;5249946;28;20025;-68
2023/10/16 03:04:11;;;;;;;58.83;11.07;;;;;;;3.57;100.00;102361.41;5251384;28;20085;-69
2023/10/16 03:06:48;;;;;;;25.08;10.20;;;;;;;3.51;100.00;102367.03;5247333;28;20016;-68
2023/10/16 03:09:28;;;;;;;16.23;8.95;;;;;;;3.52;100.00;102363.47;5245126;28;20647;-68
2023/10/16 03:12:07;;;;;;;23.17;9.23;;;;;;;3.54;100.00;102358.91;5249424;28;20028;-68
2023/10/16 03:14:45;;;;;;;14.13;8.75;;;;;;;3.51;100.00;102356.41;5246869;28;20024;-68
2023/10/16 03:17:22;;;;;;;21.27;9.27;;;;;;;3.53;100.00;102358.06;5250990;28;20036;-68
2023/10/16 03:19:55;;;;;;;18.85;9.73;;;;;;;3.54;100.00;102354.44;5241782;28;20051;-68
2023/10/16 03:22:25;;;;;;;17.27;9.35;;;;;;;3.53;100.00;102341.28;5248606;28;20070;-68
2023/10/16 03:24:55;;;;;;;18.05;9.60;;;;;;;3.51;100.00;102348.44;5249134;28;20029;-69
2023/10/16 03:27:28;;;;;;;21.38;10.45;;;;;;;3.49;100.00;102342.38;5249457;28;20493;-68
2023/10/16 03:29:59;;;;;;;24.88;9.68;;;;;;;3.46;100.00;102345.19;5251335;28;20030;-68
2023/10/16 03:32:33;;;;;;;18.25;9.30;;;;;;;3.43;100.00;102345.38;5244726;28;20036;-68
2023/10/16 03:35:08;;;;;;;18.17;9.60;;;;;;;3.44;100.00;102347.09;5250192;28;20099;-68
2023/10/16 03:37:40;;;;;;;18.60;9.55;;;;;;;3.45;100.00;102347.00;5249540;28;20051;-69
2023/10/16 03:40:12;;;;;;;20.02;9.70;;;;;;;3.49;100.00;102345.88;5246087;28;20028;-68
2023/10/16 03:42:43;;;;;;;20.50;9.18;;;;;;;3.46;100.00;102345.19;5248815;28;20064;-68
2023/10/16 03:45:16;;;;;;;15.98;8.68;;;;;;;3.45;100.00;102346.13;5249833;28;20098;-68
2023/10/16 03:47:54;;;;;;;19.73;9.73;;;;;;;3.42;100.00;102343.66;5247661;28;20032;-68
2023/10/16 03:50:26;;;;;;;19.17;10.00;;;;;;;3.40;100.00;102340.22;5248297;28;20111;-68
2023/10/16 03:52:56;;;;;;;21.83;10.05;;;;;;;3.43;100.00;102334.75;5247382;28;20029;-69
2023/10/16 03:55:27;;;;;;;21.30;10.45;;;;;;;3.46;100.00;102340.75;5248925;28;20028;-69
2023/10/16 03:57:58;;;;;;;17.95;10.27;;;;;;;3.48;100.00;102340.66;5248025;28;20044;-68
2023/10/16 04:00:50;;;;;;;23.23;10.05;;;;;;;3.48;100.00;102343.31;5246071;28;20203;-69
2023/10/16 04:03:22;;;;;;;22.75;11.23;;;;;;;3.49;100.00;102334.41;5248872;28;20496;-69
2023/10/16 04:05:53;;;;;;;15.55;8.75;;;;;;;3.47;100.00;102331.84;5248783;28;20418;-69
2023/10/16 04:08:25;;;;;;;16.40;9.23;;;;;;;3.45;100.00;102336.38;5248434;28;20119;-68
2023/10/16 04:10:56;;;;;;;18.20;9.32;;;;;;;3.43;100.00;102335.63;5247594;28;20064;-68
2023/10/16 04:13:26;;;;;;;18.08;9.50;;;;;;;3.42;100.00;102335.72;5246005;28;20439;-68
2023/10/16 04:18:30;;;;;;;19.83;9.15;;;;;;;3.40;100.00;102335.78;5245802;28;20095;-68
2023/10/16 04:31:45;;;;;;;20.75;9.63;;;;;;;3.44;100.00;102331.16;5244402;28;20115;-68
2023/10/16 04:48:06;;;;;;;18.92;10.20;;;;;;;3.45;100.00;102317.81;5247136;28;20060;-68
2023/10/16 04:53:09;;;;;;;18.30;9.63;;;;;;;3.46;100.00;102316.84;5248658;28;21157;-68
2023/10/16 04:55:53;;;;;;;19.70;8.68;;;;;;;3.44;100.00;102316.09;5246919;28;20020;-68
2023/10/16 05:01:17;;;;;;;19.42;9.52;;;;;;;3.41;100.00;102307.44;5247174;28;20020;-68
2023/10/16 05:17:21;;;;;;;20.63;9.02;;;;;;;3.32;100.00;102293.75;5250266;28;20035;-68
2023/10/16 05:19:53;;;;;;;25.35;9.73;;;;;;;3.33;100.00;102298.13;5242538;28;20020;-68
2023/10/16 06:15:49;;;;;;;13.68;7.95;;;;;;;3.18;100.00;102300.75;5251028;28;20044;-69
2023/10/16 06:18:20;;;;;;;19.80;8.57;;;;;;;3.18;100.00;102293.66;5251042;28;20210;-69
2023/10/16 06:20:52;;;;;;;16.70;9.05;;;;;;;3.20;100.00;102281.16;5248847;28;20448;-68
2023/10/16 06:23:22;;;;;;;15.35;8.55;;;;;;;3.24;100.00;102285.34;5249423;28;20028;-69
2023/10/16 06:25:53;;;;;;;19.52;9.25;;;;;;;3.25;100.00;102284.41;5253414;28;20021;-68
2023/10/16 06:28:23;;;;;;;33.75;9.48;;;;;;;3.27;100.00;102284.34;5252527;28;20024;-68
2023/10/16 06:30:54;;;;;;;140.43;15.35;;;;;;;3.28;100.00;102284.25;5251266;28;20036;-68
2023/10/16 06:33:25;;;;;;;19.83;10.52;;;;;;;3.32;100.00;102290.25;5250141;28;20454;-68
2023/10/16 06:35:55;;;;;;;16.05;8.18;;;;;;;3.36;100.00;102291.78;5251828;28;20017;-68
2023/10/16 06:38:26;;;;;;;14.98;8.82;;;;;;;3.45;100.00;102290.41;5254542;28;20028;-68
2023/10/16 06:40:57;;;;;;;15.20;8.05;;;;;;;3.51;100.00;102287.41;5250046;28;20119;-68
2023/10/16 06:43:27;;;;;;;18.27;9.15;;;;;;;3.59;100.00;102296.66;5253871;28;20039;-68
2023/10/16 06:45:58;;;;;;;13.65;8.15;;;;;;;3.69;100.00;102290.84;5249314;28;20025;-68
2023/10/16 06:48:29;;;;;;;14.30;7.80;;;;;;;3.70;100.00;102296.06;5252047;28;20074;-68
2023/10/16 06:51:08;;;;;;;20.48;9.18;;;;;;;3.74;100.00;102302.06;5251202;28;20137;-69
2023/10/16 06:53:39;;;;;;;15.88;8.43;;;;;;;3.83;100.00;102297.09;5249752;28;20024;-69
2023/10/16 06:56:14;;;;;;;15.55;8.68;;;;;;;3.92;100.00;102308.16;5253797;28;20405;-68
2023/10/16 06:58:45;;;;;;;14.80;8.45;;;;;;;4.00;100.00;102297.91;5252123;28;20048;-68
2023/10/16 07:01:19;;;;;;;15.65;8.98;;;;;;;4.13;100.00;102304.25;5253347;28;20446;-68
2023/10/16 07:03:50;;;;;;;21.20;8.10;;;;;;;4.24;100.00;102301.81;5249397;28;20732;-68
2023/10/16 07:06:32;;;;;;;16.08;8.40;;;;;;;4.40;100.00;102304.41;5252157;28;20323;-69
2023/10/16 07:09:03;;;;;;;17.25;8.48;;;;;;;4.54;100.00;102300.94;5252763;28;20017;-68
2023/10/16 07:11:34;;;;;;;12.18;7.43;;;;;;;4.61;100.00;102300.47;5261442;28;20039;-68
2023/10/16 07:14:11;;;;;;;15.60;8.05;;;;;;;4.74;100.00;102297.09;5256388;28;20020;-68
2023/10/16 07:16:42;;;;;;;12.48;7.05;;;;;;;4.88;100.00;102302.44;5249049;28;20020;-69
2023/10/16 07:19:16;;;;;;;14.18;7.72;;;;;;;4.97;100.00;102300.97;5256113;28;20032;-69
2023/10/16 07:21:48;;;;;;;14.20;7.88;;;;;;;5.14;100.00;102292.84;5251540;28;20053;-68
2023/10/16 07:24:21;;;;;;;15.13;7.85;;;;;;;5.44;100.00;102309.53;5255446;28;20043;-69
2023/10/16 07:26:52;;;;;;;18.30;9.35;;;;;;;5.81;100.00;102301.81;5249859;28;20039;-71
2023/10/16 07:29:23;;;;;;;11.98;7.53;;;;;;;6.12;100.00;102287.38;5248851;28;20040;-69
2023/10/16 07:31:54;;;;;;;15.18;7.15;;;;;;;6.42;100.00;102300.44;5248660;28;20028;-69
2023/10/16 07:34:24;;;;;;;11.65;7.32;;;;;;;6.54;100.00;102300.59;5253803;28;20077;-69
2023/10/16 07:36:55;;;;;;;13.95;7.68;;;;;;;6.42;100.00;102299.59;5256407;28;20020;-69
2023/10/16 07:39:28;;;;;;;12.95;6.93;;;;;;;6.40;100.00;102297.03;5250847;28;20169;-69
2023/10/16 07:42:01;;;;;;;14.00;8.13;;;;;;;6.41;100.00;102298.75;5252678;28;20032;-69
2023/10/16 07:44:35;;;;;;;14.05;7.85;;;;;;;6.57;100.00;102298.53;5254117;28;20094;-69
2023/10/16 07:47:06;;;;;;;16.98;9.25;;;;;;;6.87;100.00;102300.06;5255076;28;20021;-69
2023/10/16 07:49:37;;;;;;;16.85;8.18;;;;;;;7.16;100.00;102306.03;5250116;28;20512;-69
2023/10/16 07:52:07;;;;;;;14.65;7.38;;;;;;;7.32;100.00;102303.97;5252523;28;20397;-69
2023/10/16 07:54:41;;;;;;;15.15;8.15;;;;;;;7.61;100.00;102306.38;5250860;28;20028;-69
2023/10/16 07:57:12;;;;;;;12.75;7.15;;;;;;;7.98;100.00;102301.84;5258576;28;20036;-69
2023/10/16 07:59:47;;;;;;;13.57;9.60;;;;;;;8.30;100.00;102307.47;5247039;28;20423;-69
2023/10/16 08:02:18;;;;;;;13.05;7.90;;;;;;;8.79;100.00;102301.06;5252677;28;20401;-69
2023/10/16 08:05:00;;;;;;;20.02;12.10;;;;;;;9.27;100.00;102301.69;5258044;28;20027;-69
2023/10/16 08:07:46;;;;;;;17.10;8.52;;;;;;;9.89;100.00;102308.31;5249763;28;20035;-69
2023/10/16 08:13:12;;;;;;;11.95;7.20;;;;;;;10.43;100.00;102302.00;5254470;28;20469;-69
2023/10/16 08:15:49;;;;;;;23.75;15.05;;;;;;;10.86;100.00;102303.72;5250983;28;20473;-70
2023/10/16 08:18:19;;;;;;;19.50;12.57;;;;;;;11.06;100.00;102310.88;5244127;28;20028;-70
2023/10/16 08:21:00;;;;;;;20.88;8.15;;;;;;;11.15;100.00;102307.41;5250138;28;20374;-69
2023/10/16 08:23:38;;;;;;;10.20;6.63;;;;;;;11.57;100.00;102306.41;5247253;28;20031;-69
2023/10/16 08:26:14;;;;;;;11.60;7.65;;;;;;;11.88;100.00;102304.53;5252349;28;20036;-70
2023/10/16 08:28:45;;;;;;;17.20;7.60;;;;;;;12.05;100.00;102305.66;5249949;28;20624;-70
2023/10/16 08:31:24;;;;;;;10.02;6.53;;;;;;;12.22;100.00;102301.44;5249033;28;20051;-70
2023/10/16 08:33:55;;;;;;;13.65;7.47;;;;;;;12.19;100.00;102298.03;5248352;28;20025;-70
2023/10/16 08:36:26;;;;;;;15.02;8.45;;;;;;;12.02;100.00;102298.75;5253205;28;20385;-70
2023/10/16 08:39:07;;;;;;;16.98;8.43;;;;;;;12.07;100.00;102301.00;5254973;28;20019;-70
2023/10/16 08:41:51;;;;;;;19.40;7.55;;;;;;;12.39;100.00;102289.94;5255322;28;20044;-70
2023/10/16 08:44:24;;;;;;;12.95;6.72;;;;;;;12.80;100.00;102294.16;5248274;28;20024;-70
2023/10/16 08:49:33;;;;;;;17.85;7.65;;;;;;;12.92;100.00;102301.06;5247011;28;20044;-70
2023/10/16 08:52:11;;;;;;;15.18;7.75;;;;;;;13.07;100.00;102293.34;5253008;28;20027;-70
2023/10/16 08:57:19;;;;;;;16.63;8.05;;;;;;;12.94;100.00;102300.91;5252710;28;20036;-70
2023/10/16 08:59:50;;;;;;;17.38;8.02;;;;;;;12.85;100.00;102296.38;5248973;28;20103;-70
2023/10/16 09:02:21;;;;;;;13.98;7.05;;;;;;;12.78;100.00;102298.81;5252691;28;20473;-70
2023/10/16 09:04:52;;;;;;;16.45;7.68;;;;;;;12.64;100.00;102289.34;5256293;28;20024;-70
2023/10/16 09:07:25;;;;;;;15.40;7.93;;;;;;;12.84;100.00;102292.00;5249675;28;20374;-70
2023/10/16 09:09:55;;;;;;;13.57;7.10;;;;;;;13.08;100.00;102294.19;5247315;28;20048;-69
2023/10/16 09:12:26;;;;;;;17.60;8.63;;;;;;;13.15;100.00;102289.91;5251462;28;20074;-70
2023/10/16 09:15:05;;;;;;;14.15;7.45;;;;;;;13.36;100.00;102289.72;5253453;28;20043;-70
2023/10/16 09:17:35;;;;;;;15.90;7.40;;;;;;;13.55;100.00;102291.44;5254824;28;20034;-70
2023/10/16 09:20:17;;;;;;;12.98;8.25;;;;;;;13.67;100.00;102291.09;5251908;28;20028;-69
2023/10/16 09:22:47;;;;;;;14.00;7.18;;;;;;;13.56;100.00;102295.88;5254999;28;20059;-69
2023/10/16 09:25:22;;;;;;;15.68;6.90;;;;;;;13.47;100.00;102292.22;5257722;28;20542;-69
2023/10/16 09:27:54;;;;;;;15.88;6.60;;;;;;;13.46;100.00;102295.91;5251269;28;20115;-69
2023/10/16 09:30:28;;;;;;;16.95;6.97;;;;;;;13.55;100.00;102295.00;5254204;28;20036;-69
2023/10/16 09:32:58;;;;;;;15.65;6.28;;;;;;;13.43;100.00;102285.41;5251565;28;20179;-69
2023/10/16 09:35:30;;;;;;;18.50;7.93;;;;;;;13.34;100.00;102287.16;5254180;28;20055;-69
2023/10/16 09:38:17;;;;;;;15.48;7.05;;;;;;;13.29;100.00;102288.59;5255041;28;20272;-69
2023/10/16 09:41:12;;;;;;;16.50;7.80;;;;;;;13.44;100.00;102289.81;5252701;28;20024;-69
2023/10/16 09:43:43;;;;;;;19.95;8.10;;;;;;;13.42;100.00;102286.44;5257937;28;20089;-69
2023/10/16 09:46:33;;;;;;;13.40;6.93;;;;;;;13.36;100.00;102285.19;5253230;28;20032;-69
2023/10/16 09:49:05;;;;;;;14.55;6.65;;;;;;;13.64;100.00;102288.69;5249397;28;20021;-69
2023/10/16 09:51:36;;;;;;;15.05;7.40;;;;;;;13.63;100.00;102284.31;5250017;28;20055;-69
2023/10/16 09:54:09;;;;;;;19.63;7.60;;;;;;;13.53;100.00;102288.06;5253338;28;20114;-69
2023/10/16 09:56:48;;;;;;;16.48;8.23;;;;;;;13.42;100.00;102276.50;5253641;28;20116;-69
2023/10/16 09:59:26;;;;;;;13.80;7.80;;;;;;;13.42;100.00;102279.19;5252979;28;20034;-69
2023/10/16 10:02:03;;;;;;;20.58;7.07;;;;;;;13.46;100.00;102274.34;5251845;28;20033;-69
2023/10/16 10:04:39;;;;;;;16.52;7.13;;;;;;;13.60;100.00;102276.50;5257736;28;20377;-69
2023/10/16 10:07:19;;;;;;;20.50;8.40;;;;;;;13.60;100.00;102276.50;5256458;28;20339;-69
2023/10/16 10:09:57;;;;;;;15.77;8.13;;;;;;;13.62;100.00;102273.69;5252116;28;20024;-69
2023/10/16 10:12:43;;;;;;;20.45;7.38;;;;;;;13.58;100.00;102266.88;5251871;28;20115;-69
2023/10/16 10:15:18;;;;;;;;;;;;;;;13.60;100.00;102276.50;5254103;28;20067;-69
2023/10/16 10:17:54;;;;;;;18.63;8.02;;;;;;;13.71;100.00;102272.78;5252420;28;19920;-69
2023/10/16 10:20:26;;;;;;;13.25;7.07;;;;;;;13.63;100.00;102276.22;5252169;28;20077;-69
2023/10/16 10:23:04;;;;;;;16.92;7.72;;;;;;;13.48;100.00;102267.78;5254104;28;20028;-69
2023/10/16 10:25:37;;;;;;;17.85;7.32;;;;;;;13.71;100.00;102272.78;5253529;28;20042;-69
2023/10/16 10:28:22;;;;;;;16.10;7.50;;;;;;;13.78;100.00;102270.31;5251866;28;20032;-69
2023/10/16 10:30:56;;;;;;;17.40;7.03;;;;;;;13.86;100.00;102278.50;5249159;28;20028;-69
2023/10/16 10:33:36;;;;;;;18.20;7.45;;;;;;;13.97;100.00;102273.72;5248986;28;20028;-69
2023/10/16 10:36:27;;;;;;;14.25;6.40;;;;;;;13.97;100.00;102268.31;5253554;28;20161;-69
2023/10/16 10:39:20;;;;;;;17.35;6.05;;;;;;;13.97;100.00;102270.16;5252962;28;20032;-69
2023/10/16 10:41:54;;;;;;;18.75;6.32;;;;;;;13.96;100.00;102266.63;5245112;28;22843;-69
2023/10/16 10:44:32;;;;;;;11.18;5.80;;;;;;;14.15;100.00;102265.59;5244843;28;20036;-69
2023/10/16 10:47:18;;;;;;;12.43;5.68;;;;;;;14.26;100.00;102267.22;5251781;28;20095;-69
2023/10/16 10:49:50;;;;;;;;;;;;;;;14.46;100.00;102259.81;5245642;28;20456;-69
2023/10/16 10:52:21;;;;;;;13.65;5.25;;;;;;;14.44;100.00;102253.69;5247647;28;19916;-69
2023/10/16 10:54:58;;;;;;;15.02;6.32;;;;;;;14.43;100.00;102254.69;5252412;28;20086;-69
2023/10/16 10:57:34;;;;;;;17.08;6.50;;;;;;;14.49;100.00;102252.25;5240825;28;20025;-69
2023/10/16 11:02:52;;;;;;;15.32;5.68;;;;;;;14.39;100.00;102245.22;5252234;28;20127;-69
2023/10/16 11:05:22;;;;;;;14.32;6.03;;;;;;;14.50;100.00;102242.28;5246310;28;20020;-69
2023/10/16 11:10:42;;;;;;;22.15;6.00;;;;;;;14.57;100.00;102245.22;5250381;28;20477;-69
2023/10/16 11:13:15;;;;;;;17.70;6.57;;;;;;;14.56;100.00;102236.28;5252733;28;20036;-69
2023/10/16 11:15:47;;;;;;;13.40;5.75;;;;;;;14.64;100.00;102235.47;5248276;28;20045;-69
2023/10/16 11:18:18;;;;;;;12.60;5.15;;;;;;;14.67;100.00;102232.47;5252934;28;20043;-70
2023/10/16 11:20:53;;;;;;;9.75;4.30;;;;;;;14.70;100.00;102227.56;5248212;28;20028;-69
2023/10/16 11:23:26;;;;;;;10.65;4.65;;;;;;;14.78;100.00;102229.47;5251213;28;20086;-69
2023/10/16 11:25:59;;;;;;;12.88;4.22;;;;;;;14.73;100.00;102229.09;5250963;28;20025;-69
2023/10/16 11:28:31;;;;;;;11.65;3.70;;;;;;;14.73;100.00;102221.84;5245430;28;20420;-70
2023/10/16 11:31:09;;;;;;;11.30;3.33;;;;;;;14.74;100.00;102220.84;5250121;28;20444;-69
2023/10/16 11:33:47;;;;;;;10.60;3.40;;;;;;;14.67;100.00;102219.78;5243699;28;20378;-69
2023/10/16 11:36:23;;;;;;;12.13;3.13;;;;;;;14.60;100.00;102212.47;5252555;28;20028;-69
2023/10/16 11:38:58;;;;;;;9.63;3.70;;;;;;;14.64;100.00;102213.84;5245901;28;20108;-69
2023/10/16 11:41:32;;;;;;;8.75;3.42;;;;;;;14.62;100.00;102214.03;5244291;28;20275;-69
2023/10/16 11:44:13;;;;;;;13.32;3.65;;;;;;;14.70;100.00;102210.50;5252287;28;20027;-69
2023/10/16 11:46:46;;;;;;;9.60;3.53;;;;;;;14.72;100.00;102205.81;5241459;28;20386;-69
2023/10/16 11:51:49;;;;;;;6.60;3.10;;;;;;;14.84;100.00;102200.97;5251573;28;20044;-69
2023/10/16 11:54:23;;;;;;;7.82;2.45;;;;;;;14.95;100.00;102195.28;5250334;28;20035;-69
2023/10/16 11:56:56;;;;;;;9.18;2.88;;;;;;;14.95;100.00;102192.56;5251349;28;20021;-69
2023/10/16 11:59:28;;;;;;;8.10;2.83;;;;;;;14.84;100.00;102185.59;5250337;28;20028;-69
2023/10/16 12:01:59;;;;;;;8.55;2.95;;;;;;;14.81;100.00;102191.34;5250107;28;20028;-69
2023/10/16 12:04:30;;;;;;;8.18;3.00;;;;;;;14.81;100.00;102185.94;5253592;28;20103;-69
2023/10/16 12:07:01;;;;;;;6.22;2.88;;;;;;;14.85;100.00;102181.03;5249530;28;20579;-69
2023/10/16 12:09:42;;;;;;;16.45;3.72;;;;;;;14.87;100.00;102179.03;5252869;28;20034;-69
2023/10/16 12:12:22;;;;;;;7.97;3.30;;;;;;;14.82;100.00;102171.41;5252370;28;20116;-69
2023/10/16 12:14:53;;;;;;;11.73;3.58;;;;;;;14.90;100.00;102173.28;5248339;28;20094;-69
2023/10/16 12:17:27;;;;;;;11.27;3.60;;;;;;;14.90;100.00;102170.59;5253853;28;20031;-69
2023/10/16 12:19:58;;;;;;;11.02;3.35;;;;;;;14.92;100.00;102161.34;5249125;28;20017;-69
2023/10/16 12:22:28;;;;;;;10.90;3.05;;;;;;;14.95;100.00;102160.97;5253998;28;20039;-69
2023/10/16 12:24:59;;;;;;;9.18;3.20;;;;;;;14.92;100.00;102165.88;5254754;28;20031;-69
2023/10/16 12:27:29;;;;;;;7.20;2.63;;;;;;;14.94;100.00;102153.06;5250426;28;20036;-69
2023/10/16 12:30:01;;;;;;;7.88;2.67;;;;;;;14.93;100.00;102148.66;5251122;28;20021;-69
2023/10/16 12:32:32;;;;;;;7.10;2.40;;;;;;;14.90;100.00;102149.81;5248857;28;20405;-69
2023/10/16 12:35:08;;;;;;;12.13;3.00;;;;;;;15.07;100.00;102147.19;5249963;28;20025;-70
2023/10/16 12:37:38;;;;;;;8.45;2.38;;;;;;;15.08;100.00;102138.91;5252698;28;20051;-69
2023/10/16 12:40:27;;;;;;;6.00;2.05;;;;;;;15.07;100.00;102142.63;5234320;28;20055;-70
2023/10/16 12:43:00;;;;;;;5.60;2.25;;;;;;;15.09;100.00;102139.75;5244470;28;20021;-69
2023/10/16 12:45:32;;;;;;;4.28;1.60;;;;;;;14.87;100.00;102141.22;5248001;28;20059;-70
2023/10/16 12:48:04;;;;;;;8.10;1.83;;;;;;;14.89;100.00;102131.91;5250508;28;20038;-69
2023/10/16 12:50:35;;;;;;;5.82;1.63;;;;;;;14.84;100.00;102134.28;5250426;28;20036;-70
2023/10/16 12:53:06;;;;;;;7.20;1.55;;;;;;;14.99;100.00;102126.38;5251478;28;20472;-69
2023/10/16 12:55:37;;;;;;;3.22;1.52;;;;;;;14.97;100.00;102121.16;5250159;28;20039;-70
2023/10/16 12:58:10;;;;;;;4.10;1.70;;;;;;;15.00;100.00;102120.81;5250019;28;20417;-70
2023/10/16 13:00:46;;;;;;;9.98;2.92;;;;;;;14.95;100.00;102117.75;5246229;28;20481;-69
2023/10/16 13:03:20;;;;;;;;;;;;;;;14.95;100.00;102116.91;5253166;28;20092;-70
2023/10/16 13:05:52;;;;;;;6.32;2.28;;;;;;;14.92;100.00;102117.25;5245028;28;19912;-70
2023/10/16 13:08:22;;;;;;;5.70;2.45;;;;;;;14.89;100.00;102112.16;5249719;28;20039;-70
2023/10/16 13:10:53;;;;;;;9.13;1.85;;;;;;;14.95;100.00;102116.91;5248149;28;20370;-69
2023/10/16 13:13:23;;;;;;;7.28;1.83;;;;;;;14.93;100.00;102113.53;5249804;28;20033;-69
2023/10/16 13:15:54;;;;;;;4.18;1.77;;;;;;;14.96;100.00;102111.38;5249446;28;20390;-69
2023/10/16 13:18:28;;;;;;;4.43;1.60;;;;;;;14.90;100.00;102114.69;5249755;28;20023;-70
2023/10/16 13:21:07;;;;;;;7.63;2.15;;;;;;;14.92;100.00;102110.00;5250154;28;20508;-69
2023/10/16 13:23:39;;;;;;;4.20;1.98;;;;;;;14.83;100.00;102104.72;5249256;28;20079;-70
2023/10/16 13:26:10;;;;;;;7.85;2.50;;;;;;;14.90;100.00;102106.59;5252259;28;20054;-70
2023/10/16 13:28:42;;;;;;;5.35;1.80;;;;;;;14.86;100.00;102101.69;5247999;28;20440;-70
2023/10/16 13:31:13;;;;;;;6.95;2.05;;;;;;;15.38;100.00;102096.91;5247421;28;20028;-70
2023/10/16 13:33:45;;;;;;;5.43;1.73;;;;;;;15.48;100.00;102092.19;5247818;28;20038;-70
2023/10/16 13:36:17;;;;;;;4.47;2.00;;;;;;;15.48;100.00;102096.75;5250282;28;20159;-70
2023/10/16 13:38:51;;;;;;;6.32;2.17;;;;;;;15.59;100.00;102103.69;5248229;28;20032;-69
2023/10/16 13:41:22;;;;;;;6.05;2.45;;;;;;;15.60;100.00;102098.09;5246956;28;20034;-69